createdAt,value
2022-08-25T00:02:00.208Z,101390.13
2022-08-25T00:04:29.524Z,101385.72
2022-08-25T00:07:00.662Z,101389.25
2022-08-25T00:09:30.078Z,101385.72
2022-08-25T00:11:56.505Z,101381.28
2022-08-25T00:14:26.646Z,101385.72
2022-08-25T00:16:53.308Z,101388.34
2022-08-25T00:19:27.122Z,101385.72
2022-08-25T00:21:54.892Z,101385.72
2022-08-25T00:24:22.554Z,101387.44
2022-08-25T00:26:54.113Z,101389.22
2022-08-25T00:29:21.509Z,101380.41
2022-08-25T00:31:48.374Z,101393.63
2022-08-25T00:34:18.705Z,101390.94
2022-08-25T00:36:45.306Z,101394.47
2022-08-25T00:39:11.982Z,101395.34
2022-08-25T00:41:41.322Z,101399.75
2022-08-25T00:44:09.826Z,101387.41
2022-08-25T00:46:47.284Z,101396.19
2022-08-25T00:49:26.705Z,101398.84
2022-08-25T00:52:00.400Z,101397.06
2022-08-25T00:54:39.113Z,101403.19
2022-08-25T00:57:07.314Z,101397.00
2022-08-25T00:59:34.296Z,101397.00
2022-08-25T01:02:02.072Z,101404.03
2022-08-25T01:04:28.552Z,101396.97
2022-08-25T01:06:55.628Z,101399.59
2022-08-25T01:09:22.187Z,101395.19
2022-08-25T01:11:48.914Z,101410.16
2022-08-25T01:14:18.840Z,101397.84
2022-08-25T01:16:45.823Z,101393.44
2022-08-25T01:19:17.437Z,101392.56
2022-08-25T01:21:47.435Z,101389.91
2022-08-25T01:24:25.607Z,101382.00
2022-08-25T01:26:52.057Z,101388.16
2022-08-25T01:29:21.322Z,101383.75
2022-08-25T01:31:49.368Z,101382.88
2022-08-25T01:34:16.920Z,101382.88
2022-08-25T01:36:44.879Z,101387.22
2022-08-25T01:39:11.946Z,101377.56
2022-08-25T01:42:03.918Z,101375.78
2022-08-25T01:44:32.143Z,101378.44
2022-08-25T01:46:58.667Z,101377.56
2022-08-25T01:49:25.187Z,101371.41
2022-08-25T01:51:56.886Z,101370.50
2022-08-25T01:54:23.689Z,101376.66
2022-08-25T01:56:50.143Z,101381.06
2022-08-25T01:59:21.645Z,101381.06
2022-08-25T02:01:51.196Z,101371.34
2022-08-25T02:04:26.884Z,101373.97
2022-08-25T02:06:53.327Z,101373.09
2022-08-25T02:09:19.770Z,101371.34
2022-08-25T02:11:47.780Z,101372.22
2022-08-25T02:14:15.022Z,101373.09
2022-08-25T02:16:44.633Z,101368.69
2022-08-25T02:19:12.058Z,101374.78
2022-08-25T02:21:39.367Z,101361.59
2022-08-25T02:24:06.893Z,101366.00
2022-08-25T02:26:33.509Z,101364.22
2022-08-25T02:29:00.479Z,101369.50
2022-08-25T02:31:27.096Z,101370.38
2022-08-25T02:33:54.818Z,101370.38
2022-08-25T02:36:21.644Z,101364.22
2022-08-25T02:38:48.645Z,101364.22
2022-08-25T02:41:19.355Z,101361.59
2022-08-25T02:43:48.400Z,101356.28
2022-08-25T02:46:16.624Z,101366.81
2022-08-25T02:48:43.211Z,101358.03
2022-08-25T02:51:10.379Z,101362.41
2022-08-25T02:53:39.583Z,101359.78
2022-08-25T02:56:07.286Z,101358.91
2022-08-25T02:58:33.826Z,101362.41
2022-08-25T03:01:00.280Z,101354.50
2022-08-25T03:03:27.298Z,101364.16
2022-08-25T03:05:55.993Z,101359.75
2022-08-25T03:08:22.458Z,101351.84
2022-08-25T03:10:48.930Z,101352.72
2022-08-25T03:13:18.575Z,101345.63
2022-08-25T03:15:45.806Z,101347.38
2022-08-25T03:18:12.326Z,101350.00
2022-08-25T03:20:40.914Z,101351.75
2022-08-25T03:23:07.811Z,101348.22
2022-08-25T03:25:52.779Z,101350.88
2022-08-25T03:28:21.102Z,101345.59
2022-08-25T03:30:56.336Z,101347.28
2022-08-25T03:33:22.858Z,101347.28
2022-08-25T03:35:49.638Z,101346.41
2022-08-25T03:38:16.908Z,101349.91
2022-08-25T03:40:43.381Z,101347.28
2022-08-25T03:43:09.818Z,101343.78
2022-08-25T03:45:40.815Z,101344.66
2022-08-25T03:48:07.794Z,101346.41
2022-08-25T03:50:34.551Z,101348.22
2022-08-25T03:53:01.100Z,101340.28
2022-08-25T03:55:28.198Z,101340.31
2022-08-25T03:57:56.138Z,101334.13
2022-08-25T04:00:23.606Z,101331.50
2022-08-25T04:02:50.193Z,101332.41
2022-08-25T04:05:16.696Z,101331.47
2022-08-25T04:07:43.142Z,101329.72
2022-08-25T04:10:10.477Z,101335.88
2022-08-25T04:12:37.132Z,101336.75
2022-08-25T04:15:05.380Z,101335.84
2022-08-25T04:17:32.345Z,101337.63
2022-08-25T04:19:59.356Z,101329.72
2022-08-25T04:22:25.805Z,101345.53
2022-08-25T04:24:55.301Z,101342.88
2022-08-25T04:27:22.943Z,101344.63
2022-08-25T04:29:49.379Z,101343.75
2022-08-25T04:32:15.826Z,101349.91
2022-08-25T04:34:43.392Z,101339.38
2022-08-25T04:37:10.148Z,101345.50
2022-08-25T04:39:36.615Z,101348.16
2022-08-25T04:42:03.764Z,101349.91
2022-08-25T04:44:30.554Z,101350.78
2022-08-25T04:46:57.091Z,101351.69
2022-08-25T04:49:23.537Z,101356.06
2022-08-25T04:51:49.967Z,101350.81
2022-08-25T04:54:17.371Z,101350.81
2022-08-25T04:56:44.135Z,101355.22
2022-08-25T04:59:15.073Z,101352.56
2022-08-25T05:01:42.762Z,101348.22
2022-08-25T05:04:20.420Z,101350.84
2022-08-25T05:06:55.292Z,101345.59
2022-08-25T05:09:21.829Z,101349.09
2022-08-25T05:11:48.311Z,101347.34
2022-08-25T05:14:18.148Z,101344.69
2022-08-25T05:16:46.268Z,101344.69
2022-08-25T05:19:13.065Z,101347.34
2022-08-25T05:21:40.137Z,101342.06
2022-08-25T05:24:07.705Z,101342.06
2022-08-25T05:26:34.544Z,101341.22
2022-08-25T05:29:04.308Z,101332.44
2022-08-25T05:31:31.802Z,101334.19
2022-08-25T05:33:58.962Z,101330.69
2022-08-25T05:36:26.933Z,101328.13
2022-08-25T05:38:53.868Z,101337.78
2022-08-25T05:41:22.462Z,101343.06
2022-08-25T05:43:49.967Z,101347.38
2022-08-25T05:46:18.856Z,101344.81
2022-08-25T05:48:45.790Z,101345.72
2022-08-25T05:51:13.136Z,101331.66
2022-08-25T05:53:41.602Z,101349.22
2022-08-25T05:56:08.174Z,101349.22
2022-08-25T05:58:36.215Z,101343.09
2022-08-25T06:01:22.967Z,101344.88
2022-08-25T06:03:53.269Z,101355.41
2022-08-25T06:06:21.120Z,101358.94
2022-08-25T06:08:47.551Z,101353.69
2022-08-25T06:11:15.322Z,101351.94
2022-08-25T06:13:41.765Z,101344.94
2022-08-25T06:16:08.282Z,101348.47
2022-08-25T06:18:34.784Z,101342.34
2022-08-25T06:21:08.340Z,101340.63
2022-08-25T06:23:34.774Z,101338.88
2022-08-25T06:26:01.889Z,101342.38
2022-08-25T06:28:28.342Z,101345.03
2022-08-25T06:30:59.171Z,101338.91
2022-08-25T06:33:25.705Z,101346.81
2022-08-25T06:35:55.929Z,101342.44
2022-08-25T06:38:23.243Z,101334.56
2022-08-25T06:40:52.038Z,101335.50
2022-08-25T06:43:21.691Z,101339.88
2022-08-25T06:45:48.570Z,101342.53
2022-08-25T06:48:15.303Z,101348.72
2022-08-25T06:50:41.955Z,101345.19
2022-08-25T06:53:08.476Z,101339.91
2022-08-25T06:55:35.390Z,101343.47
2022-08-25T06:58:03.334Z,101340.81
2022-08-25T07:00:32.172Z,101348.72
2022-08-25T07:03:00.999Z,101339.94
2022-08-25T07:05:40.896Z,101347.84
2022-08-25T07:08:11.644Z,101342.56
2022-08-25T07:10:38.215Z,101344.34
2022-08-25T07:13:04.668Z,101344.34
2022-08-25T07:15:31.119Z,101343.44
2022-08-25T07:17:57.676Z,101342.56
2022-08-25T07:22:52.256Z,101344.28
2022-08-25T07:25:18.858Z,101351.31
2022-08-25T07:27:45.756Z,101351.31
2022-08-25T07:30:12.214Z,101347.78
2022-08-25T07:32:41.930Z,101346.84
2022-08-25T07:35:19.200Z,101341.59
2022-08-25T07:37:55.606Z,101331.88
2022-08-25T07:40:29.600Z,101321.31
2022-08-25T07:42:58.550Z,101325.69
2022-08-25T07:45:31.585Z,101320.38
2022-08-25T07:48:06.689Z,101330.06
2022-08-25T07:50:34.056Z,101323.88
2022-08-25T07:53:01.031Z,101329.16
2022-08-25T07:55:30.142Z,101329.22
2022-08-25T07:57:57.953Z,101326.53
2022-08-25T08:00:27.737Z,101322.09
2022-08-25T08:02:54.495Z,101328.28
2022-08-25T08:05:21.312Z,101322.06
2022-08-25T08:07:50.653Z,101326.50
2022-08-25T08:13:06.616Z,101332.59
2022-08-25T08:15:34.211Z,101327.31
2022-08-25T08:18:00.753Z,101317.56
2022-08-25T08:20:28.777Z,101310.47
2022-08-25T08:22:55.352Z,101312.19
2022-08-25T08:25:26.581Z,101306.84
2022-08-25T08:27:55.371Z,101304.19
2022-08-25T08:30:23.766Z,101305.09
2022-08-25T08:33:09.056Z,101307.69
2022-08-25T08:35:38.838Z,101302.41
2022-08-25T08:38:10.325Z,101312.03
2022-08-25T08:41:33.902Z,101308.47
2022-08-25T08:44:09.788Z,101311.94
2022-08-25T08:46:45.159Z,101311.00
2022-08-25T08:49:23.046Z,101303.03
2022-08-25T08:51:57.855Z,101311.84
2022-08-25T08:54:27.677Z,101303.00
2022-08-25T08:57:16.632Z,101289.69
2022-08-25T08:59:53.664Z,101292.25
2022-08-25T09:02:38.601Z,101294.84
2022-08-25T09:05:10.738Z,101297.44
2022-08-25T09:07:48.278Z,101303.56
2022-08-25T09:10:16.896Z,101298.22
2022-08-25T09:12:48.461Z,101293.75
2022-08-25T09:15:58.087Z,101277.75
2022-08-25T09:18:51.282Z,101284.81
2022-08-25T09:21:33.730Z,101284.66
2022-08-25T09:24:11.783Z,101285.47
2022-08-25T09:26:52.378Z,101287.16
2022-08-25T09:29:25.290Z,101285.25
2022-08-25T09:31:53.772Z,101286.97
2022-08-25T09:34:23.340Z,101278.09
2022-08-25T09:36:52.813Z,101270.94
2022-08-25T09:39:20.784Z,101267.28
2022-08-25T09:41:52.014Z,101270.63
2022-08-25T09:44:21.159Z,101260.84
2022-08-25T09:47:04.600Z,101266.09
2022-08-25T09:49:37.650Z,101266.94
2022-08-25T09:52:38.350Z,101258.13
2022-08-25T09:55:07.825Z,101254.53
2022-08-25T09:57:37.114Z,101248.28
2022-08-25T10:00:31.723Z,101249.06
2022-08-25T10:03:24.575Z,101238.38
2022-08-25T10:05:59.575Z,101245.25
2022-08-25T10:08:37.142Z,101228.31
2022-08-25T10:11:09.216Z,101233.69
2022-08-25T10:13:47.882Z,101225.56
2022-08-25T10:16:24.261Z,101225.50
2022-08-25T10:19:08.515Z,101218.22
2022-08-25T10:21:36.630Z,101214.47
2022-08-25T10:24:06.038Z,101209.91
2022-08-25T10:26:48.079Z,101211.50
2022-08-25T10:29:44.992Z,101205.13
2022-08-25T10:32:40.270Z,101197.88
2022-08-25T10:35:16.872Z,101198.53
2022-08-25T10:38:11.534Z,101201.97
2022-08-25T10:41:10.355Z,101190.34
2022-08-25T10:43:45.664Z,101195.31
2022-08-25T10:46:32.727Z,101195.28
2022-08-25T10:49:19.214Z,101186.16
2022-08-25T10:51:57.094Z,101192.38
2022-08-25T10:54:38.714Z,101179.94
2022-08-25T10:57:27.802Z,101175.53
2022-08-25T11:00:10.126Z,101180.78
2022-08-25T11:02:58.311Z,101176.22
2022-08-25T11:05:40.788Z,101177.88
2022-08-25T11:08:16.718Z,101171.69
2022-08-25T11:10:48.802Z,101155.41
2022-08-25T11:13:22.751Z,101157.72
2022-08-25T11:16:17.042Z,101156.59
2022-08-25T11:18:56.069Z,101146.34
2022-08-25T11:21:39.698Z,101141.59
2022-08-25T11:24:26.003Z,101142.09
2022-08-25T11:26:56.305Z,101137.53
2022-08-25T11:29:26.121Z,101133.69
2022-08-25T11:31:54.117Z,101137.94
2022-08-25T11:34:21.586Z,101141.34
2022-08-25T11:36:52.664Z,101144.50
2022-08-25T11:39:42.134Z,101152.31
2022-08-25T11:42:24.712Z,101137.00
2022-08-25T11:45:07.866Z,101132.28
2022-08-25T11:48:07.326Z,101129.50
2022-08-25T11:50:55.970Z,101123.34
2022-08-25T11:53:33.536Z,101126.56
2022-08-25T11:56:06.986Z,101123.81
2022-08-25T11:58:37.534Z,101128.47
2022-08-25T12:01:05.906Z,101124.81
2022-08-25T12:03:32.311Z,101114.25
2022-08-25T12:06:20.703Z,101112.47
2022-08-25T12:09:05.734Z,101105.47
2022-08-25T12:11:38.293Z,101106.91
2022-08-25T12:14:28.569Z,101106.16
2022-08-25T12:16:55.252Z,101110.56
2022-08-25T12:19:45.110Z,101098.91
2022-08-25T12:22:11.458Z,101093.28
2022-08-25T12:24:48.641Z,101092.97
2022-08-25T12:27:44.072Z,101083.84
2022-08-25T12:30:18.616Z,101076.56
2022-08-25T12:33:07.633Z,101073.91
2022-08-25T12:36:02.875Z,101076.97
2022-08-25T12:38:35.019Z,101069.38
2022-08-25T12:41:11.641Z,101061.13
2022-08-25T12:43:44.059Z,101075.28
2022-08-25T12:46:19.737Z,101068.09
2022-08-25T12:48:58.679Z,101063.47
2022-08-25T12:51:28.070Z,101069.59
2022-08-25T12:54:01.524Z,101063.94
2022-08-25T12:56:37.625Z,101066.66
2022-08-25T12:59:12.213Z,101071.78
2022-08-25T13:02:03.154Z,101064.59
2022-08-25T13:04:52.620Z,101054.56
2022-08-25T13:07:37.955Z,101058.69
2022-08-25T13:10:42.312Z,101055.94
2022-08-25T13:13:36.352Z,101064.34
2022-08-25T13:16:07.212Z,101052.66
2022-08-25T13:18:35.708Z,101054.63
2022-08-25T13:21:20.023Z,101050.34
2022-08-25T13:23:49.931Z,101045.22
2022-08-25T13:26:22.551Z,101039.97
2022-08-25T13:28:59.102Z,101037.41
2022-08-25T13:31:29.819Z,101031.31
2022-08-25T13:34:05.315Z,101026.91
2022-08-25T13:37:01.778Z,101024.88
2022-08-25T13:39:45.391Z,101019.19
2022-08-25T13:42:17.498Z,101018.84
2022-08-25T13:44:53.643Z,101018.84
2022-08-25T13:47:43.553Z,101010.50
2022-08-25T13:50:28.406Z,101006.03
2022-08-25T13:53:01.281Z,101006.38
2022-08-25T13:55:38.286Z,101009.03
2022-08-25T13:58:24.563Z,100997.94
2022-08-25T14:01:22.397Z,100995.91
2022-08-25T14:03:57.625Z,100987.84
2022-08-25T14:06:28.291Z,100984.19
2022-08-25T14:08:57.791Z,100982.16
2022-08-25T14:11:27.773Z,100988.19
2022-08-25T14:14:08.699Z,100975.00
2022-08-25T14:16:49.500Z,100973.13
2022-08-25T14:19:20.278Z,100970.47
2022-08-25T14:21:47.301Z,100968.59
2022-08-25T14:24:22.602Z,100953.63
2022-08-25T14:26:53.923Z,100959.69
2022-08-25T14:29:22.033Z,100955.44
2022-08-25T14:31:48.766Z,100957.31
2022-08-25T14:34:22.692Z,100951.75
2022-08-25T14:36:50.603Z,100960.44
2022-08-25T14:39:17.244Z,100955.03
2022-08-25T14:41:47.537Z,100952.28
2022-08-25T14:44:20.404Z,100938.66
2022-08-25T14:46:52.671Z,100947.72
2022-08-25T14:49:24.899Z,100946.88
2022-08-25T14:51:51.634Z,100924.34
2022-08-25T14:54:27.137Z,100934.19
2022-08-25T14:56:53.955Z,100924.50
2022-08-25T14:59:20.540Z,100933.31
2022-08-25T15:01:47.182Z,100925.97
2022-08-25T15:04:23.485Z,100919.53
2022-08-25T15:06:55.588Z,100911.41
2022-08-25T15:09:22.162Z,100920.38
2022-08-25T15:11:51.028Z,100912.66
2022-08-25T15:14:18.911Z,100915.03
2022-08-25T15:16:56.809Z,100914.19
2022-08-25T15:19:26.205Z,100913.53
2022-08-25T15:21:53.247Z,100910.84
2022-08-25T15:24:22.469Z,100908.47
2022-08-25T15:26:55.853Z,100899.56
2022-08-25T15:29:24.176Z,100899.84
2022-08-25T15:31:50.957Z,100899.72
2022-08-25T15:34:17.505Z,100894.56
2022-08-25T15:36:45.497Z,100897.47
2022-08-25T15:39:12.352Z,100906.56
2022-08-25T15:41:39.674Z,100911.97
2022-08-25T15:44:11.278Z,100909.41
2022-08-25T15:46:41.642Z,100905.63
2022-08-25T15:49:13.487Z,100903.16
2022-08-25T15:51:47.088Z,100905.09
2022-08-25T15:54:14.879Z,100904.59
2022-08-25T15:56:41.318Z,100906.50
2022-08-25T15:59:09.612Z,100905.66
2022-08-25T16:01:36.088Z,100904.13
2022-08-25T16:04:03.493Z,100907.09
2022-08-25T16:06:30.252Z,100908.03
2022-08-25T16:08:56.746Z,100898.03
2022-08-25T16:11:25.381Z,100891.28
2022-08-25T16:13:53.102Z,100889.94
2022-08-25T16:16:21.277Z,100888.50
2022-08-25T16:18:48.431Z,100881.94
2022-08-25T16:21:17.600Z,100878.00
2022-08-25T16:23:45.138Z,100880.56
2022-08-25T16:26:12.946Z,100873.38
2022-08-25T16:28:40.846Z,100878.31
2022-08-25T16:31:12.154Z,100871.66
2022-08-25T16:33:38.823Z,100873.09
2022-08-25T16:36:10.435Z,100880.16
2022-08-25T16:38:37.737Z,100875.25
2022-08-25T16:41:09.058Z,100870.91
2022-08-25T16:43:36.018Z,100857.88
2022-08-25T16:46:06.497Z,100874.03
2022-08-25T16:48:33.888Z,100870.06
2022-08-25T16:51:00.432Z,100862.78
2022-08-25T16:53:45.593Z,100853.06
2022-08-25T16:56:15.237Z,100856.00
2022-08-25T16:58:41.718Z,100859.13
2022-08-25T17:01:12.800Z,100859.41
2022-08-25T17:03:43.956Z,100854.72
2022-08-25T17:06:14.035Z,100859.63
2022-08-25T17:08:40.660Z,100860.19
2022-08-25T17:11:14.049Z,100869.38
2022-08-25T17:13:44.422Z,100868.44
2022-08-25T17:16:12.298Z,100874.13
2022-08-25T17:18:41.168Z,100872.97
2022-08-25T17:21:10.229Z,100870.28
2022-08-25T17:23:38.517Z,100870.38
2022-08-25T17:26:07.231Z,100868.97
2022-08-25T17:28:40.338Z,100874.84
2022-08-25T17:31:08.222Z,100869.88
2022-08-25T17:33:34.702Z,100868.84
2022-08-25T17:36:01.148Z,100875.06
2022-08-25T17:38:28.611Z,100869.75
2022-08-25T17:40:57.581Z,100864.72
2022-08-25T17:43:24.908Z,100876.22
2022-08-25T17:45:53.158Z,100876.50
2022-08-25T17:48:20.106Z,100878.66
2022-08-25T17:50:46.551Z,100880.91
2022-08-25T17:53:13.550Z,100884.03
2022-08-25T17:55:43.534Z,100884.50
2022-08-25T17:58:12.504Z,100883.41
2022-08-25T18:00:43.850Z,100887.94
2022-08-25T18:03:10.529Z,100884.66
2022-08-25T18:05:37.888Z,100883.94
2022-08-25T18:08:10.289Z,100883.28
2022-08-25T18:10:36.856Z,100882.59
2022-08-25T18:13:03.322Z,100889.16
2022-08-25T18:15:30.432Z,100884.03
2022-08-25T18:17:57.266Z,100885.25
2022-08-25T18:20:24.010Z,100887.28
2022-08-25T18:22:50.787Z,100893.91
2022-08-25T18:25:17.560Z,100887.88
2022-08-25T18:27:44.041Z,100887.50
2022-08-25T18:30:10.956Z,100892.88
2022-08-25T18:32:37.998Z,100884.25
2022-08-25T18:35:07.080Z,100887.91
2022-08-25T18:37:52.031Z,100898.72
2022-08-25T18:40:24.749Z,100898.91
2022-08-25T18:42:53.233Z,100893.78
2022-08-25T18:45:21.115Z,100899.28
2022-08-25T18:47:47.862Z,100903.84
2022-08-25T18:50:15.246Z,100904.91
2022-08-25T18:52:41.678Z,100901.50
2022-08-25T18:55:08.605Z,100904.34
2022-08-25T18:57:37.799Z,100896.41
2022-08-25T19:00:09.267Z,100904.47
2022-08-25T19:02:36.124Z,100901.94
2022-08-25T19:05:07.332Z,100900.25
2022-08-25T19:07:34.244Z,100904.84
2022-08-25T19:10:00.687Z,100900.47
2022-08-25T19:12:27.465Z,100908.63
2022-08-25T19:14:53.893Z,100914.91
2022-08-25T19:17:20.632Z,100911.50
2022-08-25T19:19:51.567Z,100908.00
2022-08-25T19:22:38.519Z,100913.44
2022-08-25T19:25:05.497Z,100915.38
2022-08-25T19:27:32.755Z,100913.63
2022-08-25T19:30:00.211Z,100910.09
2022-08-25T19:32:27.685Z,100907.56
2022-08-25T19:34:54.834Z,100916.63
2022-08-25T19:37:25.091Z,100916.78
2022-08-25T19:39:55.362Z,100919.50
2022-08-25T19:42:36.684Z,100919.53
2022-08-25T19:45:07.695Z,100919.75
2022-08-25T19:47:34.466Z,100917.09
2022-08-25T19:50:00.919Z,100920.66
2022-08-25T19:52:27.795Z,100918.03
2022-08-25T19:54:55.614Z,100906.63
2022-08-25T19:57:28.403Z,100919.09
2022-08-25T20:00:21.679Z,100911.22
2022-08-25T20:02:48.639Z,100922.88
2022-08-25T20:05:16.892Z,100918.50
2022-08-25T20:07:51.976Z,100916.84
2022-08-25T20:10:19.312Z,100925.91
2022-08-25T20:12:46.196Z,100918.78
2022-08-25T20:15:14.517Z,100925.94
2022-08-25T20:17:43.250Z,100917.13
2022-08-25T20:20:14.156Z,100921.63
2022-08-25T20:22:40.912Z,100920.78
2022-08-25T20:25:14.058Z,100919.06
2022-08-25T20:27:43.490Z,100919.13
2022-08-25T20:30:25.724Z,100917.47
2022-08-25T20:32:53.477Z,100916.69
2022-08-25T20:35:26.808Z,100913.13
2022-08-25T20:37:54.936Z,100911.47
2022-08-25T20:40:25.718Z,100914.13
2022-08-25T20:42:53.034Z,100923.94
2022-08-25T20:45:23.379Z,100912.47
2022-08-25T20:47:50.328Z,100916.09
2022-08-25T20:50:18.193Z,100909.06
2022-08-25T20:52:44.781Z,100918.88
2022-08-25T20:55:12.357Z,100914.53
2022-08-25T20:57:39.521Z,100919.97
2022-08-25T21:00:06.892Z,100924.44
2022-08-25T21:02:33.816Z,100918.25
2022-08-25T21:05:01.177Z,100923.63
2022-08-25T21:07:28.278Z,100920.13
2022-08-25T21:09:54.836Z,100919.28
2022-08-25T21:12:21.663Z,100921.13
2022-08-25T21:14:48.480Z,100917.63
2022-08-25T21:17:15.737Z,100922.97
2022-08-25T21:19:45.841Z,100913.31
2022-08-25T21:22:12.326Z,100910.69
2022-08-25T21:24:39.038Z,100907.25
2022-08-25T21:27:06.272Z,100903.72
2022-08-25T21:29:33.096Z,100901.16
2022-08-25T21:32:00.067Z,100897.66
2022-08-25T21:34:28.208Z,100904.78
2022-08-25T21:36:57.605Z,100899.56
2022-08-25T21:39:26.182Z,100902.25
2022-08-25T21:41:53.501Z,100901.41
2022-08-25T21:44:20.178Z,100906.78
2022-08-25T21:46:54.298Z,100898.88
2022-08-25T21:49:22.370Z,100906.94
2022-08-25T21:51:59.240Z,100913.22
2022-08-25T21:54:26.561Z,100902.63
2022-08-25T21:56:59.463Z,100899.97
2022-08-25T21:59:28.927Z,100901.81
2022-08-25T22:02:00.816Z,100905.44
2022-08-25T22:04:27.966Z,100908.13
2022-08-25T22:06:55.718Z,100906.44
2022-08-25T22:09:24.611Z,100910.91
2022-08-25T22:11:53.191Z,100907.38
2022-08-25T22:14:22.014Z,100908.34
2022-08-25T22:16:48.498Z,100905.81
2022-08-25T22:19:15.335Z,100900.53
2022-08-25T22:21:43.676Z,100905.88
2022-08-25T22:24:10.682Z,100899.78
2022-08-25T22:26:38.834Z,100902.47
2022-08-25T22:29:06.561Z,100899.00
2022-08-25T22:31:33.550Z,100899.03
2022-08-25T22:34:00.426Z,100898.19
2022-08-25T22:36:31.977Z,100901.75
2022-08-25T22:38:58.558Z,100898.31
2022-08-25T22:41:26.969Z,100905.44
2022-08-25T22:43:55.330Z,100910.78
2022-08-25T22:46:22.986Z,100902.88
2022-08-25T22:48:50.341Z,100898.50
2022-08-25T22:51:21.001Z,100903.84
2022-08-25T22:53:49.061Z,100898.63
2022-08-25T22:56:17.480Z,100899.56
2022-08-25T22:58:51.878Z,100899.59
2022-08-25T23:01:20.049Z,100892.59
2022-08-25T23:03:47.498Z,100895.31
2022-08-25T23:06:24.835Z,100898.03
2022-08-25T23:08:53.708Z,100893.66
2022-08-25T23:11:20.986Z,100889.22
2022-08-25T23:13:47.433Z,100880.47
2022-08-25T23:16:14.319Z,100876.97
2022-08-25T23:18:43.795Z,100876.13
2022-08-25T23:21:29.443Z,100877.97
2022-08-25T23:24:01.750Z,100885.97
2022-08-25T23:26:28.694Z,100871.88
2022-08-25T23:28:55.192Z,100875.50
2022-08-25T23:31:21.796Z,100872.94
2022-08-25T23:33:50.830Z,100877.47
2022-08-25T23:36:17.737Z,100874.91
2022-08-25T23:38:45.774Z,100867.91
2022-08-25T23:41:21.161Z,100865.34
2022-08-25T23:43:49.450Z,100862.78
2022-08-25T23:46:17.347Z,100857.56
2022-08-25T23:48:44.039Z,100859.38
2022-08-25T23:51:10.795Z,100850.66
2022-08-25T23:53:37.586Z,100848.03
2022-08-25T23:56:05.732Z,100845.44
2022-08-25T23:58:32.572Z,100851.66
